sensor_id;sensor_type;location;lat;lon;timestamp;pressure;altitude;pressure_sealevel;temperature;humidity
23589;BME280;11972;48.078;11.876;2023-05-20T00:04:00;95340.25;;;12.13;100.00
23589;BME280;11972;48.078;11.876;2023-05-20T00:08:00;95329.31;;;12.23;100.00
23589;BME280;11972;48.078;11.876;2023-05-20T00:12:04;95324.19;;;12.21;100.00
23589;BME280;11972;48.078;11.876;2023-05-20T00:16:05;95322.19;;;12.23;100.00
23589;BME280;11972;48.078;11.876;2023-05-20T00:20:06;95324.66;;;12.31;100.00
23589;BME280;11972;48.078;11.876;2023-05-20T00:24:06;95324.88;;;12.36;100.00
23589;BME280;11972;48.078;11.876;2023-05-20T00:28:06;95321.41;;;12.36;100.00
23589;BME280;11972;48.078;11.876;2023-05-20T00:32:07;95318.56;;;12.37;100.00
23589;BME280;11972;48.078;11.876;2023-05-20T00:36:07;95317.78;;;12.44;100.00
23589;BME280;11972;48.078;11.876;2023-05-20T00:40:08;95316.97;;;12.50;100.00
23589;BME280;11972;48.078;11.876;2023-05-20T00:44:08;95319.44;;;12.51;100.00
23589;BME280;11972;48.078;11.876;2023-05-20T00:48:09;95320.69;;;12.55;100.00
23589;BME280;11972;48.078;11.876;2023-05-20T00:52:10;95322.72;;;12.60;100.00
23589;BME280;11972;48.078;11.876;2023-05-20T00:56:11;95322.31;;;12.63;100.00
23589;BME280;11972;48.078;11.876;2023-05-20T01:00:12;95321.50;;;12.62;100.00
23589;BME280;11972;48.078;11.876;2023-05-20T01:04:13;95316.00;;;12.64;100.00
23589;BME280;11972;48.078;11.876;2023-05-20T01:08:13;95318.25;;;12.67;100.00
23589;BME280;11972;48.078;11.876;2023-05-20T01:12:21;95315.19;;;12.70;100.00
23589;BME280;11972;48.078;11.876;2023-05-20T01:16:23;95311.34;;;12.73;100.00
23589;BME280;11972;48.078;11.876;2023-05-20T01:20:23;95299.91;;;12.65;100.00
23589;BME280;11972;48.078;11.876;2023-05-20T01:24:24;95301.72;;;12.52;100.00
23589;BME280;11972;48.078;11.876;2023-05-20T01:28:24;95301.09;;;12.50;100.00
23589;BME280;11972;48.078;11.876;2023-05-20T01:32:42;95299.66;;;12.54;100.00
23589;BME280;11972;48.078;11.876;2023-05-20T01:36:45;95296.22;;;12.60;100.00
23589;BME280;11972;48.078;11.876;2023-05-20T01:40:46;95296.84;;;12.62;100.00
23589;BME280;11972;48.078;11.876;2023-05-20T01:44:48;95291.75;;;12.67;100.00
23589;BME280;11972;48.078;11.876;2023-05-20T01:48:48;95286.06;;;12.70;100.00
23589;BME280;11972;48.078;11.876;2023-05-20T01:52:48;95282.78;;;12.61;100.00
23589;BME280;11972;48.078;11.876;2023-05-20T01:56:49;95286.44;;;12.60;100.00
23589;BME280;11972;48.078;11.876;2023-05-20T02:00:49;95296.00;;;12.55;100.00
23589;BME280;11972;48.078;11.876;2023-05-20T02:04:53;95284.78;;;12.53;100.00
23589;BME280;11972;48.078;11.876;2023-05-20T02:08:53;95283.56;;;12.49;100.00
23589;BME280;11972;48.078;11.876;2023-05-20T02:12:53;95285.19;;;12.50;100.00
23589;BME280;11972;48.078;11.876;2023-05-20T02:16:54;95290.09;;;12.53;100.00
23589;BME280;11972;48.078;11.876;2023-05-20T02:20:54;95288.28;;;12.60;100.00
23589;BME280;11972;48.078;11.876;2023-05-20T02:24:55;95281.97;;;12.61;100.00
23589;BME280;11972;48.078;11.876;2023-05-20T02:28:55;95290.69;;;12.55;100.00
23589;BME280;11972;48.078;11.876;2023-05-20T02:32:55;95293.75;;;12.52;100.00
23589;BME280;11972;48.078;11.876;2023-05-20T02:36:56;95289.47;;;12.51;100.00
23589;BME280;11972;48.078;11.876;2023-05-20T02:40:57;95285.56;;;12.47;100.00
23589;BME280;11972;48.078;11.876;2023-05-20T02:44:58;95274.59;;;12.50;100.00
23589;BME280;11972;48.078;11.876;2023-05-20T02:48:59;95270.31;;;12.49;100.00
23589;BME280;11972;48.078;11.876;2023-05-20T02:52:59;95284.34;;;12.42;100.00
23589;BME280;11972;48.078;11.876;2023-05-20T02:57:00;95281.91;;;12.41;100.00
23589;BME280;11972;48.078;11.876;2023-05-20T03:01:01;95288.44;;;12.45;100.00
23589;BME280;11972;48.078;11.876;2023-05-20T03:05:02;95283.34;;;12.44;100.00
23589;BME280;11972;48.078;11.876;2023-05-20T03:09:03;95288.81;;;12.42;100.00
23589;BME280;11972;48.078;11.876;2023-05-20T03:13:04;95290.47;;;12.43;100.00
23589;BME280;11972;48.078;11.876;2023-05-20T03:17:08;95288.81;;;12.42;100.00
23589;BME280;11972;48.078;11.876;2023-05-20T03:21:08;95281.09;;;12.40;100.00
23589;BME280;11972;48.078;11.876;2023-05-20T03:25:09;95278.63;;;12.32;100.00
23589;BME280;11972;48.078;11.876;2023-05-20T03:29:09;95285.88;;;12.17;100.00
23589;BME280;11972;48.078;11.876;2023-05-20T03:33:10;95292.00;;;12.17;100.00
23589;BME280;11972;48.078;11.876;2023-05-20T03:37:11;95287.56;;;12.25;100.00
23589;BME280;11972;48.078;11.876;2023-05-20T03:41:11;95280.25;;;12.33;100.00
23589;BME280;11972;48.078;11.876;2023-05-20T03:45:11;95284.75;;;12.39;100.00
23589;BME280;11972;48.078;11.876;2023-05-20T03:49:12;95289.84;;;12.41;100.00
23589;BME280;11972;48.078;11.876;2023-05-20T03:53:12;95293.72;;;12.45;100.00
23589;BME280;11972;48.078;11.876;2023-05-20T03:57:12;95294.34;;;12.40;100.00
23589;BME280;11972;48.078;11.876;2023-05-20T04:01:13;95293.31;;;12.41;100.00
23589;BME280;11972;48.078;11.876;2023-05-20T04:05:14;95294.53;;;12.46;100.00
23589;BME280;11972;48.078;11.876;2023-05-20T04:09:14;95293.72;;;12.38;100.00
23589;BME280;11972;48.078;11.876;2023-05-20T04:13:15;95280.03;;;12.28;100.00
23589;BME280;11972;48.078;11.876;2023-05-20T04:17:15;95281.06;;;12.27;100.00
23589;BME280;11972;48.078;11.876;2023-05-20T04:21:15;95292.47;;;12.28;100.00
23589;BME280;11972;48.078;11.876;2023-05-20T04:25:16;95294.13;;;12.35;100.00
23589;BME280;11972;48.078;11.876;2023-05-20T04:29:17;95289.88;;;12.48;100.00
23589;BME280;11972;48.078;11.876;2023-05-20T04:33:18;95284.41;;;12.56;100.00
23589;BME280;11972;48.078;11.876;2023-05-20T04:37:18;95278.50;;;12.67;100.00
23589;BME280;11972;48.078;11.876;2023-05-20T04:41:19;95278.34;;;12.82;100.00
23589;BME280;11972;48.078;11.876;2023-05-20T04:45:19;95275.28;;;12.91;100.00
23589;BME280;11972;48.078;11.876;2023-05-20T04:49:23;95283.25;;;12.98;100.00
23589;BME280;11972;48.078;11.876;2023-05-20T04:53:25;95292.63;;;13.01;100.00
23589;BME280;11972;48.078;11.876;2023-05-20T04:57:25;95283.25;;;13.05;100.00
23589;BME280;11972;48.078;11.876;2023-05-20T05:01:26;95282.81;;;13.08;100.00
23589;BME280;11972;48.078;11.876;2023-05-20T05:05:26;95276.53;;;13.09;100.00
23589;BME280;11972;48.078;11.876;2023-05-20T05:09:27;95276.09;;;12.99;100.00
23589;BME280;11972;48.078;11.876;2023-05-20T05:13:27;95272.22;;;13.08;100.00
23589;BME280;11972;48.078;11.876;2023-05-20T05:17:27;95275.88;;;12.74;100.00
23589;BME280;11972;48.078;11.876;2023-05-20T05:21:28;95278.91;;;12.64;100.00
23589;BME280;11972;48.078;11.876;2023-05-20T05:25:28;95265.69;;;12.77;100.00
23589;BME280;11972;48.078;11.876;2023-05-20T05:29:29;95268.53;;;12.82;100.00
23589;BME280;11972;48.078;11.876;2023-05-20T05:33:32;95267.34;;;12.98;100.00
23589;BME280;11972;48.078;11.876;2023-05-20T05:37:32;95268.97;;;13.06;100.00
23589;BME280;11972;48.078;11.876;2023-05-20T05:41:36;95269.81;;;13.26;100.00
23589;BME280;11972;48.078;11.876;2023-05-20T05:45:36;95266.94;;;13.41;100.00
23589;BME280;11972;48.078;11.876;2023-05-20T05:49:39;95260.81;;;13.54;100.00
23589;BME280;11972;48.078;11.876;2023-05-20T05:53:40;95255.31;;;13.55;100.00
23589;BME280;11972;48.078;11.876;2023-05-20T05:57:40;95262.44;;;13.55;100.00
23589;BME280;11972;48.078;11.876;2023-05-20T06:01:40;95265.09;;;13.55;100.00
23589;BME280;11972;48.078;11.876;2023-05-20T06:05:44;95266.91;;;13.61;100.00
23589;BME280;11972;48.078;11.876;2023-05-20T06:09:46;95277.50;;;13.74;100.00
23589;BME280;11972;48.078;11.876;2023-05-20T06:13:46;95269.94;;;13.78;100.00
23589;BME280;11972;48.078;11.876;2023-05-20T06:17:47;95268.94;;;13.72;100.00
23589;BME280;11972;48.078;11.876;2023-05-20T06:21:48;95270.97;;;13.83;100.00
23589;BME280;11972;48.078;11.876;2023-05-20T06:25:49;95264.34;;;14.06;100.00
23589;BME280;11972;48.078;11.876;2023-05-20T06:29:49;95258.13;;;14.32;100.00
23589;BME280;11972;48.078;11.876;2023-05-20T06:33:49;95263.59;;;14.82;100.00
23589;BME280;11972;48.078;11.876;2023-05-20T06:37:50;95256.31;;;15.27;100.00
23589;BME280;11972;48.078;11.876;2023-05-20T06:41:50;95249.53;;;15.50;100.00
23589;BME280;11972;48.078;11.876;2023-05-20T06:45:53;95253.00;;;15.75;100.00
23589;BME280;11972;48.078;11.876;2023-05-20T06:49:54;95261.00;;;16.12;100.00
23589;BME280;11972;48.078;11.876;2023-05-20T06:53:54;95251.16;;;16.61;100.00
23589;BME280;11972;48.078;11.876;2023-05-20T06:57:55;95244.19;;;16.90;100.00
23589;BME280;11972;48.078;11.876;2023-05-20T07:01:55;95230.31;;;17.11;100.00
23589;BME280;11972;48.078;11.876;2023-05-20T07:05:55;95232.09;;;17.29;100.00
23589;BME280;11972;48.078;11.876;2023-05-20T07:09:56;95237.31;;;17.59;100.00
23589;BME280;11972;48.078;11.876;2023-05-20T07:13:56;95241.97;;;17.76;100.00
23589;BME280;11972;48.078;11.876;2023-05-20T07:17:57;95232.88;;;17.65;100.00
23589;BME280;11972;48.078;11.876;2023-05-20T07:21:58;95232.22;;;17.58;100.00
23589;BME280;11972;48.078;11.876;2023-05-20T07:25:59;95240.59;;;17.61;100.00
23589;BME280;11972;48.078;11.876;2023-05-20T07:29:59;95243.94;;;17.57;100.00
23589;BME280;11972;48.078;11.876;2023-05-20T07:34:00;95240.78;;;17.48;100.00
23589;BME280;11972;48.078;11.876;2023-05-20T07:38:01;95233.22;;;17.10;100.00
23589;BME280;11972;48.078;11.876;2023-05-20T07:42:02;95228.44;;;16.70;100.00
23589;BME280;11972;48.078;11.876;2023-05-20T07:46:03;95222.50;;;16.56;100.00
23589;BME280;11972;48.078;11.876;2023-05-20T07:50:03;95215.63;;;16.49;100.00
23589;BME280;11972;48.078;11.876;2023-05-20T07:54:04;95214.72;;;16.85;100.00
23589;BME280;11972;48.078;11.876;2023-05-20T07:58:04;95216.88;;;17.30;100.00
23589;BME280;11972;48.078;11.876;2023-05-20T08:02:05;95219.53;;;17.65;100.00
23589;BME280;11972;48.078;11.876;2023-05-20T08:06:06;95221.75;;;17.68;100.00
23589;BME280;11972;48.078;11.876;2023-05-20T08:10:07;95216.56;;;17.50;100.00
23589;BME280;11972;48.078;11.876;2023-05-20T08:14:07;95216.06;;;17.29;100.00
23589;BME280;11972;48.078;11.876;2023-05-20T08:18:07;95218.06;;;17.34;100.00
23589;BME280;11972;48.078;11.876;2023-05-20T08:22:08;95211.91;;;17.80;100.00
23589;BME280;11972;48.078;11.876;2023-05-20T08:26:08;95207.91;;;18.35;100.00
23589;BME280;11972;48.078;11.876;2023-05-20T08:30:09;95210.00;;;18.73;100.00
23589;BME280;11972;48.078;11.876;2023-05-20T08:34:09;95219.75;;;19.13;100.00
23589;BME280;11972;48.078;11.876;2023-05-20T08:38:10;95208.25;;;19.13;100.00
23589;BME280;11972;48.078;11.876;2023-05-20T08:42:10;95217.00;;;19.42;100.00
23589;BME280;11972;48.078;11.876;2023-05-20T08:46:12;95218.63;;;19.43;100.00
23589;BME280;11972;48.078;11.876;2023-05-20T08:50:13;95207.91;;;19.59;100.00
23589;BME280;11972;48.078;11.876;2023-05-20T08:54:14;95211.78;;;20.29;100.00
23589;BME280;11972;48.078;11.876;2023-05-20T08:58:15;95207.78;;;20.81;100.00
23589;BME280;11972;48.078;11.876;2023-05-20T09:02:18;95207.28;;;21.11;100.00
23589;BME280;11972;48.078;11.876;2023-05-20T09:06:18;95204.38;;;21.50;100.00
23589;BME280;11972;48.078;11.876;2023-05-20T09:10:19;95204.31;;;21.87;100.00
23589;BME280;11972;48.078;11.876;2023-05-20T09:14:20;95211.38;;;21.56;100.00
23589;BME280;11972;48.078;11.876;2023-05-20T09:18:20;95226.31;;;21.74;100.00
23589;BME280;11972;48.078;11.876;2023-05-20T09:22:22;95218.72;;;22.13;100.00
23589;BME280;11972;48.078;11.876;2023-05-20T09:26:22;95218.09;;;21.96;100.00
23589;BME280;11972;48.078;11.876;2023-05-20T09:30:24;95212.84;;;21.69;100.00
23589;BME280;11972;48.078;11.876;2023-05-20T09:34:24;95208.16;;;21.54;100.00
23589;BME280;11972;48.078;11.876;2023-05-20T09:38:25;95212.03;;;22.16;100.00
23589;BME280;11972;48.078;11.876;2023-05-20T09:46:35;95209.75;;;21.50;100.00
23589;BME280;11972;48.078;11.876;2023-05-20T09:50:39;95211.16;;;21.58;100.00
23589;BME280;11972;48.078;11.876;2023-05-20T09:54:49;95205.81;;;21.68;100.00
23589;BME280;11972;48.078;11.876;2023-05-20T09:58:53;95198.19;;;21.97;100.00
23589;BME280;11972;48.078;11.876;2023-05-20T10:03:03;95190.03;;;22.29;100.00
23589;BME280;11972;48.078;11.876;2023-05-20T10:07:32;95182.84;;;22.60;100.00
23589;BME280;11972;48.078;11.876;2023-05-20T10:11:45;95177.75;;;22.69;100.00
23589;BME280;11972;48.078;11.876;2023-05-20T10:16:02;95176.34;;;22.46;100.00
23589;BME280;11972;48.078;11.876;2023-05-20T10:20:08;95175.78;;;22.34;100.00
23589;BME280;11972;48.078;11.876;2023-05-20T10:24:11;95173.69;;;22.61;100.00
23589;BME280;11972;48.078;11.876;2023-05-20T10:28:11;95174.84;;;23.32;100.00
23589;BME280;11972;48.078;11.876;2023-05-20T10:32:23;95175.91;;;23.56;100.00
23589;BME280;11972;48.078;11.876;2023-05-20T10:36:27;95162.44;;;23.51;100.00
23589;BME280;11972;48.078;11.876;2023-05-20T10:40:29;95160.31;;;23.07;100.00
23589;BME280;11972;48.078;11.876;2023-05-20T10:44:43;95157.34;;;23.49;100.00
23589;BME280;11972;48.078;11.876;2023-05-20T10:48:44;95159.72;;;23.76;100.00
23589;BME280;11972;48.078;11.876;2023-05-20T10:52:44;95156.66;;;24.09;100.00
23589;BME280;11972;48.078;11.876;2023-05-20T10:56:54;95158.63;;;24.47;100.00
23589;BME280;11972;48.078;11.876;2023-05-20T11:00:54;95148.59;;;24.58;100.00
23589;BME280;11972;48.078;11.876;2023-05-20T11:04:55;95144.38;;;24.32;100.00
23589;BME280;11972;48.078;11.876;2023-05-20T11:09:05;95136.25;;;24.47;100.00
23589;BME280;11972;48.078;11.876;2023-05-20T11:13:11;95133.00;;;24.50;100.00
23589;BME280;11972;48.078;11.876;2023-05-20T11:17:11;95133.50;;;24.52;100.00
23589;BME280;11972;48.078;11.876;2023-05-20T11:21:12;95127.41;;;24.75;100.00
23589;BME280;11972;48.078;11.876;2023-05-20T11:25:12;95119.63;;;24.74;100.00
23589;BME280;11972;48.078;11.876;2023-05-20T11:29:12;95123.06;;;24.40;100.00
23589;BME280;11972;48.078;11.876;2023-05-20T11:33:15;95117.13;;;23.53;100.00
23589;BME280;11972;48.078;11.876;2023-05-20T11:37:17;95113.88;;;23.61;100.00
23589;BME280;11972;48.078;11.876;2023-05-20T11:41:23;95113.81;;;23.97;100.00
23589;BME280;11972;48.078;11.876;2023-05-20T11:45:23;95111.44;;;24.45;100.00
23589;BME280;11972;48.078;11.876;2023-05-20T11:49:24;95096.09;;;24.74;100.00
23589;BME280;11972;48.078;11.876;2023-05-20T11:53:24;95104.41;;;25.22;100.00
23589;BME280;11972;48.078;11.876;2023-05-20T11:57:24;95097.63;;;25.49;100.00
23589;BME280;11972;48.078;11.876;2023-05-20T12:01:25;95101.88;;;25.55;100.00
23589;BME280;11972;48.078;11.876;2023-05-20T12:05:27;95104.94;;;25.19;100.00
23589;BME280;11972;48.078;11.876;2023-05-20T12:09:27;95100.50;;;24.65;100.00
23589;BME280;11972;48.078;11.876;2023-05-20T12:13:27;95103.22;;;24.16;100.00
23589;BME280;11972;48.078;11.876;2023-05-20T12:17:28;95094.91;;;23.97;100.00
23589;BME280;11972;48.078;11.876;2023-05-20T12:21:28;95095.53;;;24.38;100.00
23589;BME280;11972;48.078;11.876;2023-05-20T12:25:29;95088.13;;;24.59;100.00
23589;BME280;11972;48.078;11.876;2023-05-20T12:29:29;95091.19;;;24.42;100.00
23589;BME280;11972;48.078;11.876;2023-05-20T12:33:29;95090.41;;;24.42;100.00
23589;BME280;11972;48.078;11.876;2023-05-20T12:37:30;95098.50;;;24.76;100.00
23589;BME280;11972;48.078;11.876;2023-05-20T12:41:30;95094.22;;;24.75;100.00
23589;BME280;11972;48.078;11.876;2023-05-20T12:45:31;95090.09;;;24.83;100.00
23589;BME280;11972;48.078;11.876;2023-05-20T12:49:31;95087.31;;;25.27;100.00
23589;BME280;11972;48.078;11.876;2023-05-20T12:53:32;95081.59;;;25.82;100.00
23589;BME280;11972;48.078;11.876;2023-05-20T12:57:32;95085.97;;;26.20;100.00
23589;BME280;11972;48.078;11.876;2023-05-20T13:01:32;95077.81;;;26.26;100.00
23589;BME280;11972;48.078;11.876;2023-05-20T13:05:33;95077.84;;;26.20;100.00
23589;BME280;11972;48.078;11.876;2023-05-20T13:09:33;95071.63;;;25.53;100.00
23589;BME280;11972;48.078;11.876;2023-05-20T13:13:34;95067.38;;;25.95;100.00
23589;BME280;11972;48.078;11.876;2023-05-20T13:17:34;95065.88;;;26.45;100.00
23589;BME280;11972;48.078;11.876;2023-05-20T13:21:34;95065.50;;;26.14;100.00
23589;BME280;11972;48.078;11.876;2023-05-20T13:25:35;95059.19;;;26.00;100.00
23589;BME280;11972;48.078;11.876;2023-05-20T13:29:35;95049.91;;;26.25;100.00
23589;BME280;11972;48.078;11.876;2023-05-20T13:33:36;95043.13;;;26.28;100.00
23589;BME280;11972;48.078;11.876;2023-05-20T13:37:36;95047.22;;;25.58;100.00
23589;BME280;11972;48.078;11.876;2023-05-20T13:41:36;95035.16;;;25.27;100.00
23589;BME280;11972;48.078;11.876;2023-05-20T13:45:37;95040.78;;;25.54;100.00
23589;BME280;11972;48.078;11.876;2023-05-20T13:49:37;95036.72;;;25.33;100.00
23589;BME280;11972;48.078;11.876;2023-05-20T13:53:38;95033.72;;;25.05;100.00
23589;BME280;11972;48.078;11.876;2023-05-20T13:57:38;95030.41;;;25.13;100.00
23589;BME280;11972;48.078;11.876;2023-05-20T14:01:39;95022.50;;;25.22;100.00
23589;BME280;11972;48.078;11.876;2023-05-20T14:05:43;95016.72;;;24.41;100.00
23589;BME280;11972;48.078;11.876;2023-05-20T14:09:44;95004.84;;;24.37;100.00
23589;BME280;11972;48.078;11.876;2023-05-20T14:13:44;95015.44;;;24.29;100.00
23589;BME280;11972;48.078;11.876;2023-05-20T14:17:46;95008.69;;;24.65;100.00
23589;BME280;11972;48.078;11.876;2023-05-20T14:21:46;95004.00;;;25.10;100.00
23589;BME280;11972;48.078;11.876;2023-05-20T14:25:47;94995.56;;;25.84;100.00
23589;BME280;11972;48.078;11.876;2023-05-20T14:29:47;94998.22;;;26.27;100.00
23589;BME280;11972;48.078;11.876;2023-05-20T14:33:47;94991.84;;;27.02;100.00
23589;BME280;11972;48.078;11.876;2023-05-20T14:37:48;94996.53;;;27.70;100.00
23589;BME280;11972;48.078;11.876;2023-05-20T14:41:48;94989.41;;;28.10;100.00
23589;BME280;11972;48.078;11.876;2023-05-20T14:45:49;94985.28;;;27.77;98.72
23589;BME280;11972;48.078;11.876;2023-05-20T14:49:49;94978.56;;;28.10;100.00
23589;BME280;11972;48.078;11.876;2023-05-20T14:53:49;94972.03;;;28.34;99.15
23589;BME280;11972;48.078;11.876;2023-05-20T14:57:50;94977.13;;;27.77;99.64
23589;BME280;11972;48.078;11.876;2023-05-20T15:01:50;94982.88;;;27.20;99.56
23589;BME280;11972;48.078;11.876;2023-05-20T15:05:51;94972.91;;;26.17;100.00
23589;BME280;11972;48.078;11.876;2023-05-20T15:09:51;94971.59;;;25.29;100.00
23589;BME280;11972;48.078;11.876;2023-05-20T15:13:51;94970.50;;;25.30;100.00
23589;BME280;11972;48.078;11.876;2023-05-20T15:17:52;94964.88;;;25.93;100.00
23589;BME280;11972;48.078;11.876;2023-05-20T15:21:52;94979.91;;;26.56;100.00
23589;BME280;11972;48.078;11.876;2023-05-20T15:25:54;94976.00;;;27.09;100.00
23589;BME280;11972;48.078;11.876;2023-05-20T15:29:54;94966.31;;;27.49;100.00
23589;BME280;11972;48.078;11.876;2023-05-20T15:33:54;94969.91;;;27.58;100.00
23589;BME280;11972;48.078;11.876;2023-05-20T15:37:55;94970.19;;;27.70;100.00
23589;BME280;11972;48.078;11.876;2023-05-20T15:41:55;94968.78;;;27.87;100.00
23589;BME280;11972;48.078;11.876;2023-05-20T15:45:59;94963.19;;;28.42;100.00
23589;BME280;11972;48.078;11.876;2023-05-20T15:50:00;94971.53;;;28.09;98.46
23589;BME280;11972;48.078;11.876;2023-05-20T15:54:04;94976.81;;;26.25;98.72
23589;BME280;11972;48.078;11.876;2023-05-20T15:58:04;94978.75;;;25.44;100.00
23589;BME280;11972;48.078;11.876;2023-05-20T16:02:05;94976.19;;;25.95;100.00
23589;BME280;11972;48.078;11.876;2023-05-20T16:06:05;94977.97;;;25.62;100.00
23589;BME280;11972;48.078;11.876;2023-05-20T16:10:07;94978.53;;;25.59;100.00
23589;BME280;11972;48.078;11.876;2023-05-20T16:14:07;94980.88;;;26.46;100.00
23589;BME280;11972;48.078;11.876;2023-05-20T16:18:07;94968.59;;;27.14;100.00
23589;BME280;11972;48.078;11.876;2023-05-20T16:22:08;94971.31;;;27.42;100.00
23589;BME280;11972;48.078;11.876;2023-05-20T16:26:08;94966.22;;;26.47;100.00
23589;BME280;11972;48.078;11.876;2023-05-20T16:30:09;94972.63;;;24.80;100.00
23589;BME280;11972;48.078;11.876;2023-05-20T16:34:09;94971.09;;;24.00;100.00
23589;BME280;11972;48.078;11.876;2023-05-20T16:38:10;94969.88;;;23.83;100.00
23589;BME280;11972;48.078;11.876;2023-05-20T16:42:10;94980.47;;;23.59;100.00
23589;BME280;11972;48.078;11.876;2023-05-20T16:46:11;94976.97;;;23.53;100.00
23589;BME280;11972;48.078;11.876;2023-05-20T16:50:13;94986.88;;;23.03;100.00
23589;BME280;11972;48.078;11.876;2023-05-20T16:54:13;94985.56;;;22.80;100.00
23589;BME280;11972;48.078;11.876;2023-05-20T16:58:14;94992.31;;;22.57;100.00
23589;BME280;11972;48.078;11.876;2023-05-20T17:02:14;94990.16;;;22.28;100.00
23589;BME280;11972;48.078;11.876;2023-05-20T17:06:15;94990.09;;;21.98;100.00
23589;BME280;11972;48.078;11.876;2023-05-20T17:10:16;94991.94;;;21.92;100.00
23589;BME280;11972;48.078;11.876;2023-05-20T17:14:17;94994.34;;;21.84;100.00
23589;BME280;11972;48.078;11.876;2023-05-20T17:18:17;94995.94;;;21.69;100.00
23589;BME280;11972;48.078;11.876;2023-05-20T17:22:17;94996.69;;;21.49;100.00
23589;BME280;11972;48.078;11.876;2023-05-20T17:26:17;95000.56;;;21.21;100.00
23589;BME280;11972;48.078;11.876;2023-05-20T17:30:18;94997.84;;;21.11;100.00
23589;BME280;11972;48.078;11.876;2023-05-20T17:34:18;94996.75;;;21.07;100.00
23589;BME280;11972;48.078;11.876;2023-05-20T17:38:19;95007.91;;;20.94;100.00
23589;BME280;11972;48.078;11.876;2023-05-20T17:42:21;95010.53;;;20.78;100.00
23589;BME280;11972;48.078;11.876;2023-05-20T17:46:21;95003.66;;;20.55;100.00
23589;BME280;11972;48.078;11.876;2023-05-20T17:50:22;95016.88;;;20.35;100.00
23589;BME280;11972;48.078;11.876;2023-05-20T17:54:22;95020.75;;;20.17;100.00
23589;BME280;11972;48.078;11.876;2023-05-20T17:58:22;95023.78;;;19.99;100.00
23589;BME280;11972;48.078;11.876;2023-05-20T18:02:24;95020.88;;;19.78;100.00
23589;BME280;11972;48.078;11.876;2023-05-20T18:06:24;95019.09;;;19.62;100.00
23589;BME280;11972;48.078;11.876;2023-05-20T18:10:25;95025.56;;;19.44;100.00
23589;BME280;11972;48.078;11.876;2023-05-20T18:14:26;95032.59;;;19.28;100.00
23589;BME280;11972;48.078;11.876;2023-05-20T18:18:26;95032.91;;;19.10;100.00
23589;BME280;11972;48.078;11.876;2023-05-20T18:22:26;95039.56;;;18.91;100.00
23589;BME280;11972;48.078;11.876;2023-05-20T18:26:26;95038.22;;;18.71;100.00
23589;BME280;11972;48.078;11.876;2023-05-20T18:30:27;95037.97;;;18.56;100.00
23589;BME280;11972;48.078;11.876;2023-05-20T18:34:27;95043.78;;;18.36;100.00
23589;BME280;11972;48.078;11.876;2023-05-20T18:38:28;95036.78;;;18.18;100.00
23589;BME280;11972;48.078;11.876;2023-05-20T18:42:28;95032.22;;;18.02;100.00
23589;BME280;11972;48.078;11.876;2023-05-20T18:46:29;95025.00;;;17.85;100.00
23589;BME280;11972;48.078;11.876;2023-05-20T18:50:30;95032.03;;;17.75;100.00
23589;BME280;11972;48.078;11.876;2023-05-20T18:54:31;95027.16;;;17.60;100.00
23589;BME280;11972;48.078;11.876;2023-05-20T18:58:32;95034.53;;;17.53;100.00
23589;BME280;11972;48.078;11.876;2023-05-20T19:02:32;95015.06;;;17.41;100.00
23589;BME280;11972;48.078;11.876;2023-05-20T19:06:32;95026.31;;;17.31;100.00
23589;BME280;11972;48.078;11.876;2023-05-20T19:10:36;95026.00;;;17.16;100.00
23589;BME280;11972;48.078;11.876;2023-05-20T19:14:36;95029.75;;;17.03;100.00
23589;BME280;11972;48.078;11.876;2023-05-20T19:18:37;95033.91;;;16.99;100.00
23589;BME280;11972;48.078;11.876;2023-05-20T19:22:37;95039.97;;;16.94;100.00
23589;BME280;11972;48.078;11.876;2023-05-20T19:26:38;95045.66;;;16.86;100.00
23589;BME280;11972;48.078;11.876;2023-05-20T19:30:39;95045.66;;;16.74;100.00
23589;BME280;11972;48.078;11.876;2023-05-20T19:34:39;95044.34;;;16.65;100.00
23589;BME280;11972;48.078;11.876;2023-05-20T19:38:40;95050.63;;;16.59;100.00
23589;BME280;11972;48.078;11.876;2023-05-20T19:42:43;95052.56;;;16.52;100.00
23589;BME280;11972;48.078;11.876;2023-05-20T19:46:43;95053.03;;;16.49;100.00
23589;BME280;11972;48.078;11.876;2023-05-20T19:50:44;95059.84;;;16.45;100.00
23589;BME280;11972;48.078;11.876;2023-05-20T19:54:45;95064.03;;;16.41;100.00
23589;BME280;11972;48.078;11.876;2023-05-20T19:58:46;95067.63;;;16.34;100.00
23589;BME280;11972;48.078;11.876;2023-05-20T20:02:47;95067.03;;;16.32;100.00
23589;BME280;11972;48.078;11.876;2023-05-20T20:06:48;95061.81;;;16.26;100.00
23589;BME280;11972;48.078;11.876;2023-05-20T20:10:49;95065.72;;;16.23;100.00
23589;BME280;11972;48.078;11.876;2023-05-20T20:14:50;95060.03;;;16.20;100.00
23589;BME280;11972;48.078;11.876;2023-05-20T20:18:51;95062.34;;;16.16;100.00
23589;BME280;11972;48.078;11.876;2023-05-20T20:22:51;95066.97;;;16.09;100.00
23589;BME280;11972;48.078;11.876;2023-05-20T20:26:52;95068.47;;;16.05;100.00
23589;BME280;11972;48.078;11.876;2023-05-20T20:30:55;95071.47;;;15.97;100.00
23589;BME280;11972;48.078;11.876;2023-05-20T20:34:56;95068.88;;;15.90;100.00
23589;BME280;11972;48.078;11.876;2023-05-20T20:38:57;95072.22;;;15.85;100.00
23589;BME280;11972;48.078;11.876;2023-05-20T20:42:58;95072.66;;;15.82;100.00
23589;BME280;11972;48.078;11.876;2023-05-20T20:46:59;95070.69;;;15.78;100.00
23589;BME280;11972;48.078;11.876;2023-05-20T20:51:03;95078.91;;;15.76;100.00